createdAt,value
2018-07-21T00:00:56.131Z,76.00
2018-07-21T00:03:23.589Z,76.90
2018-07-21T00:05:51.190Z,77.80
2018-07-21T00:08:18.636Z,78.90
2018-07-21T00:10:46.083Z,79.80
2018-07-21T00:13:13.448Z,80.30
2018-07-21T00:15:40.823Z,81.60
2018-07-21T00:18:08.231Z,82.20
2018-07-21T00:20:35.641Z,83.30
2018-07-21T00:23:03.012Z,84.80
2018-07-21T00:25:30.476Z,86.10
2018-07-21T00:27:57.855Z,87.20
2018-07-21T00:30:25.235Z,88.00
2018-07-21T00:32:52.642Z,89.00
2018-07-21T00:35:20.016Z,90.30
2018-07-21T00:37:47.368Z,90.40
2018-07-21T00:40:14.711Z,90.90
2018-07-21T00:42:42.235Z,91.20
2018-07-21T00:47:36.945Z,91.90
2018-07-21T00:50:04.958Z,92.00
2018-07-21T00:55:02.696Z,92.50
2018-07-21T00:57:30.262Z,93.20
2018-07-21T00:59:57.737Z,93.40
2018-07-21T01:02:25.220Z,93.70
2018-07-21T01:04:52.658Z,93.90
2018-07-21T01:07:20.038Z,94.20
2018-07-21T01:09:47.591Z,94.70
2018-07-21T01:12:16.146Z,94.90
2018-07-21T01:14:43.576Z,95.10
2018-07-21T01:17:11.021Z,95.40
2018-07-21T01:19:38.499Z,95.50
2018-07-21T01:22:05.960Z,95.70
2018-07-21T01:27:00.558Z,95.80
2018-07-21T01:29:28.210Z,95.80
2018-07-21T01:31:55.667Z,95.90
2018-07-21T01:34:23.112Z,96.00
2018-07-21T01:39:17.864Z,96.20
2018-07-21T01:41:45.192Z,96.00
2018-07-21T01:44:12.539Z,96.30
2018-07-21T01:46:39.962Z,96.40
2018-07-21T01:49:07.364Z,96.60
2018-07-21T01:51:34.755Z,96.70
2018-07-21T01:54:02.152Z,96.80
2018-07-21T02:01:24.120Z,97.60
2018-07-21T02:03:51.493Z,97.80
2018-07-21T02:06:18.930Z,98.00
2018-07-21T02:08:46.330Z,98.30
2018-07-21T02:11:13.763Z,98.30
2018-07-21T02:13:41.994Z,98.30
2018-07-21T02:16:09.454Z,98.40
2018-07-21T02:18:36.848Z,98.70
2018-07-21T02:21:04.514Z,99.10
2018-07-21T02:23:31.902Z,99.40
2018-07-21T02:28:26.523Z,99.70
2018-07-21T02:30:53.948Z,99.90
2018-07-21T02:33:21.390Z,99.90
2018-07-21T02:35:48.776Z,99.90
2018-07-21T02:38:16.255Z,99.90
2018-07-21T02:40:43.629Z,99.90
2018-07-21T02:43:11.124Z,99.90
2018-07-21T02:45:38.631Z,99.90
2018-07-21T02:50:33.136Z,99.90
2018-07-21T02:53:00.484Z,99.90
2018-07-21T02:55:28.386Z,99.90
2018-07-21T02:57:55.742Z,99.90
2018-07-21T03:00:23.118Z,99.90
2018-07-21T03:05:18.507Z,99.90
2018-07-21T03:07:45.927Z,99.90
2018-07-21T03:10:13.399Z,99.90
2018-07-21T03:12:40.860Z,99.90
2018-07-21T03:15:08.350Z,99.90
2018-07-21T03:17:35.807Z,99.90
2018-07-21T03:20:03.393Z,99.90
2018-07-21T03:22:30.745Z,99.90
2018-07-21T03:24:58.223Z,99.90
2018-07-21T03:27:25.555Z,99.90
2018-07-21T03:29:52.919Z,99.90
2018-07-21T03:32:20.267Z,99.90
2018-07-21T03:39:42.331Z,99.90
2018-07-21T03:42:09.681Z,99.90
2018-07-21T03:44:37.063Z,99.90
2018-07-21T03:47:04.394Z,99.90
2018-07-21T03:49:31.759Z,99.90
2018-07-21T03:51:59.118Z,99.90
2018-07-21T03:54:26.467Z,99.90
2018-07-21T03:59:21.427Z,99.90
2018-07-21T04:01:48.767Z,99.90
2018-07-21T04:06:43.286Z,99.90
2018-07-21T04:11:39.039Z,99.90
2018-07-21T04:14:06.370Z,99.90
2018-07-21T04:16:34.165Z,99.90
2018-07-21T04:19:01.530Z,99.90
2018-07-21T04:21:28.910Z,99.90
2018-07-21T04:23:56.248Z,99.90
2018-07-21T04:26:23.637Z,99.90
2018-07-21T04:28:51.078Z,99.90
2018-07-21T04:31:18.616Z,99.90
2018-07-21T04:38:40.334Z,99.90
2018-07-21T04:41:07.754Z,99.60
2018-07-21T04:43:35.195Z,99.50
2018-07-21T04:46:02.595Z,99.40
2018-07-21T04:48:30.016Z,99.50
2018-07-21T04:50:57.374Z,99.30
2018-07-21T04:53:24.771Z,98.80
2018-07-21T04:55:52.115Z,98.90
2018-07-21T04:58:19.490Z,98.30
2018-07-21T05:00:46.962Z,98.30
2018-07-21T05:03:14.223Z,98.00
2018-07-21T05:05:41.574Z,97.90
2018-07-21T05:08:09.205Z,97.60
2018-07-21T05:10:36.579Z,97.60
2018-07-21T05:13:04.291Z,97.30
2018-07-21T05:18:00.575Z,96.90
2018-07-21T05:22:55.151Z,96.30
2018-07-21T05:25:22.515Z,96.30
2018-07-21T05:27:50.000Z,95.90
2018-07-21T05:30:17.347Z,95.80
2018-07-21T05:32:44.948Z,95.30
2018-07-21T05:35:12.670Z,95.10
2018-07-21T05:37:40.215Z,94.90
2018-07-21T05:45:02.111Z,94.50
2018-07-21T05:47:29.466Z,94.60
2018-07-21T05:49:56.800Z,94.10
2018-07-21T05:52:24.182Z,93.90
2018-07-21T05:54:51.558Z,93.60
2018-07-21T05:57:18.915Z,93.20
2018-07-21T05:59:46.279Z,93.00
2018-07-21T06:02:13.608Z,92.60
2018-07-21T06:04:41.052Z,92.70
2018-07-21T06:07:08.428Z,92.40
2018-07-21T06:09:35.771Z,92.10
2018-07-21T06:12:03.283Z,92.10
2018-07-21T06:14:30.654Z,91.60
2018-07-21T06:16:58.120Z,91.60
2018-07-21T06:21:52.658Z,90.80
2018-07-21T06:24:20.013Z,90.70
2018-07-21T06:26:47.359Z,90.40
2018-07-21T06:29:14.695Z,89.70
2018-07-21T06:31:42.047Z,89.50
2018-07-21T06:34:09.419Z,88.30
2018-07-21T06:36:36.858Z,88.40
2018-07-21T06:41:31.499Z,87.80
2018-07-21T06:43:59.450Z,87.30
2018-07-21T06:46:26.783Z,86.90
2018-07-21T06:48:54.120Z,86.70
2018-07-21T06:51:21.508Z,86.50
2018-07-21T06:53:48.857Z,85.80
2018-07-21T06:56:16.189Z,86.20
2018-07-21T07:01:10.711Z,85.60
2018-07-21T07:03:38.145Z,85.70
2018-07-21T07:06:05.476Z,86.00
2018-07-21T07:11:00.239Z,85.30
2018-07-21T07:13:27.642Z,84.60
2018-07-21T07:15:55.369Z,84.80
2018-07-21T07:18:23.542Z,84.30
2018-07-21T07:20:50.979Z,83.80
2018-07-21T07:23:18.353Z,83.90
2018-07-21T07:25:45.787Z,83.20
2018-07-21T07:28:13.155Z,83.20
2018-07-21T07:30:40.523Z,81.90
2018-07-21T07:33:08.061Z,81.60
2018-07-21T07:35:35.378Z,81.40
2018-07-21T07:38:02.851Z,80.60
2018-07-21T07:40:30.215Z,79.90
2018-07-21T07:42:57.790Z,79.90
2018-07-21T07:45:25.224Z,79.20
2018-07-21T07:47:54.908Z,79.10
2018-07-21T07:50:22.435Z,78.20
2018-07-21T07:52:49.843Z,77.50
2018-07-21T07:55:17.190Z,77.90
2018-07-21T07:57:44.566Z,76.60
2018-07-21T08:00:11.927Z,75.80
2018-07-21T08:02:39.330Z,75.00
2018-07-21T08:07:34.120Z,72.10
2018-07-21T08:14:56.160Z,70.40
2018-07-21T08:17:24.048Z,69.30
2018-07-21T08:27:13.563Z,70.10
2018-07-21T08:29:41.075Z,68.90
2018-07-21T08:32:08.725Z,68.20
2018-07-21T08:34:36.151Z,67.90
2018-07-21T08:37:03.457Z,67.80
2018-07-21T08:39:30.834Z,68.10
2018-07-21T08:41:58.278Z,67.50
2018-07-21T08:44:25.781Z,66.80
2018-07-21T08:46:53.187Z,67.10
2018-07-21T08:51:47.795Z,67.60
2018-07-21T08:54:15.406Z,68.70
2018-07-21T08:56:42.795Z,68.00
2018-07-21T08:59:10.239Z,66.90
2018-07-21T09:04:05.774Z,65.30
2018-07-21T09:06:33.123Z,64.40
2018-07-21T09:09:00.490Z,64.10
2018-07-21T09:11:27.822Z,64.50
2018-07-21T09:13:55.220Z,63.10
2018-07-21T09:16:22.558Z,62.60
2018-07-21T09:18:49.934Z,62.70
2018-07-21T09:21:17.270Z,63.20
2018-07-21T09:23:44.650Z,62.60
2018-07-21T09:26:11.978Z,62.90
2018-07-21T09:31:06.650Z,62.10
2018-07-21T09:33:34.008Z,60.40
2018-07-21T09:36:01.467Z,59.80
2018-07-21T09:48:18.040Z,58.50
2018-07-21T09:50:45.575Z,57.60
2018-07-21T09:53:13.002Z,57.40
2018-07-21T09:55:40.427Z,56.00
2018-07-21T10:00:40.739Z,55.80
2018-07-21T10:03:09.129Z,55.20
2018-07-21T10:05:36.673Z,54.40
2018-07-21T10:08:04.097Z,54.40
2018-07-21T10:12:59.159Z,53.60
2018-07-21T10:17:53.847Z,53.00
2018-07-21T10:20:21.214Z,53.60
2018-07-21T10:22:50.057Z,53.00
2018-07-21T10:25:23.152Z,52.00
2018-07-21T10:30:24.687Z,53.00
2018-07-21T10:32:53.038Z,51.00
2018-07-21T10:35:20.599Z,51.20
2018-07-21T10:37:48.112Z,51.20
2018-07-21T10:40:15.649Z,51.70
2018-07-21T10:42:43.167Z,52.20
2018-07-21T10:45:10.522Z,52.40
2018-07-21T10:47:37.887Z,51.70
2018-07-21T10:50:05.340Z,51.90
2018-07-21T10:52:32.769Z,51.70
2018-07-21T10:55:00.239Z,51.00
2018-07-21T10:57:27.906Z,50.80
2018-07-21T10:59:55.345Z,51.20
2018-07-21T11:02:23.048Z,51.50
2018-07-21T11:04:50.472Z,51.70
2018-07-21T11:09:45.132Z,51.70
2018-07-21T11:12:12.543Z,51.00
2018-07-21T11:14:40.075Z,51.40
2018-07-21T11:17:08.066Z,51.60
2018-07-21T11:19:35.531Z,51.20
2018-07-21T11:22:03.904Z,50.70
2018-07-21T11:24:31.660Z,50.80
2018-07-21T11:26:59.187Z,50.70
2018-07-21T11:29:27.093Z,51.30
2018-07-21T11:34:22.024Z,51.00
2018-07-21T11:36:49.650Z,50.00
2018-07-21T11:41:44.528Z,48.70
2018-07-21T11:44:13.069Z,48.70
2018-07-21T11:49:07.884Z,48.20
2018-07-21T11:51:35.387Z,48.40
2018-07-21T11:54:02.928Z,47.60
2018-07-21T11:56:30.451Z,47.70
2018-07-21T11:58:57.879Z,48.10
2018-07-21T12:01:25.374Z,48.80
2018-07-21T12:08:47.361Z,47.90
2018-07-21T12:11:14.870Z,48.20
2018-07-21T12:13:43.033Z,48.70
2018-07-21T12:16:10.383Z,49.40
2018-07-21T12:18:38.455Z,50.70
2018-07-21T12:21:05.956Z,50.00
2018-07-21T12:23:33.457Z,50.30
2018-07-21T12:26:01.198Z,50.50
2018-07-21T12:30:55.860Z,50.50
2018-07-21T12:33:23.432Z,50.70
2018-07-21T12:35:50.936Z,50.40
2018-07-21T12:38:18.382Z,50.00
2018-07-21T12:40:45.751Z,49.60
2018-07-21T12:43:13.381Z,49.70
2018-07-21T12:45:40.876Z,49.40
2018-07-21T12:48:09.151Z,49.40
2018-07-21T12:53:03.840Z,50.80
2018-07-21T12:55:31.226Z,50.20
2018-07-21T12:57:58.598Z,50.00
2018-07-21T13:00:25.969Z,49.60
2018-07-21T13:02:53.375Z,49.20
2018-07-21T13:05:20.810Z,49.10
2018-07-21T13:07:48.257Z,49.00
2018-07-21T13:10:15.883Z,48.90
2018-07-21T13:12:43.610Z,49.30
2018-07-21T13:15:10.963Z,48.50
2018-07-21T13:17:38.412Z,48.20
2018-07-21T13:20:05.943Z,48.40
2018-07-21T13:22:33.406Z,48.70
2018-07-21T13:25:02.817Z,48.40
2018-07-21T13:27:30.339Z,48.40
2018-07-21T13:30:05.051Z,47.80
2018-07-21T13:32:34.823Z,48.70
2018-07-21T13:37:29.691Z,49.20
2018-07-21T13:39:57.151Z,48.90
2018-07-21T13:42:24.863Z,48.60
2018-07-21T13:47:20.129Z,48.20
2018-07-21T13:49:47.524Z,48.00
2018-07-21T13:52:15.044Z,47.60
2018-07-21T13:57:12.445Z,48.30
2018-07-21T13:59:40.418Z,47.60
2018-07-21T14:09:30.011Z,47.00
2018-07-21T14:14:25.196Z,47.60
2018-07-21T14:16:52.784Z,47.20
2018-07-21T14:19:20.473Z,46.30
2018-07-21T14:21:47.940Z,45.70
2018-07-21T14:24:15.430Z,45.20
2018-07-21T14:26:43.661Z,45.30
2018-07-21T14:29:11.313Z,45.50
2018-07-21T14:31:38.742Z,45.50
2018-07-21T14:34:07.295Z,45.90
2018-07-21T14:36:35.153Z,46.40
2018-07-21T14:39:03.244Z,46.50
2018-07-21T14:41:31.204Z,46.40
2018-07-21T14:43:59.678Z,46.60
2018-07-21T14:46:27.047Z,46.20
2018-07-21T14:48:54.717Z,47.00
2018-07-21T14:51:22.065Z,45.70
2018-07-21T14:53:50.139Z,45.70
2018-07-21T14:56:17.585Z,45.70
2018-07-21T15:01:12.283Z,45.90
2018-07-21T15:03:39.711Z,46.10
2018-07-21T15:06:10.952Z,45.40
2018-07-21T15:08:39.808Z,45.70
2018-07-21T15:11:07.308Z,45.50
2018-07-21T15:13:35.174Z,45.30
2018-07-21T15:16:02.848Z,45.20
2018-07-21T15:18:30.829Z,45.00
